Time;durP1;ratioP1;P1;durP2;ratioP2;P2;SDS_P1;SDS_P2;PMS_P1;PMS_P2;Temp;Humidity;BMP_temperature;BMP_pressure;BME280_temperature;BME280_humidity;BME280_pressure;Samples;Min_cycle;Max_cycle;Signal;HPM_P1;HPM_P2
2022/12/20 00:01:51;;;;;;;42.70;21.15;;;3.80;99.90;;;;;;5051574;28;20029;-89
2022/12/20 00:04:17;;;;;;;37.97;20.80;;;3.80;99.90;;;;;;5052273;28;20035;-89
2022/12/20 00:06:42;;;;;;;37.95;20.75;;;3.70;99.90;;;;;;5034473;28;20472;-89
2022/12/20 00:09:10;;;;;;;39.10;20.38;;;3.60;99.90;;;;;;5052097;28;20040;-89
2022/12/20 00:11:39;;;;;;;44.17;23.13;;;3.60;99.90;;;;;;5051874;28;20021;-89
2022/12/20 00:14:06;;;;;;;40.97;20.42;;;3.60;99.90;;;;;;5052260;28;20116;-89
2022/12/20 00:16:32;;;;;;;46.78;21.95;;;3.60;99.90;;;;;;5051960;28;20044;-89
2022/12/20 00:19:00;;;;;;;41.05;21.83;;;3.60;99.90;;;;;;5052127;28;20082;-89
2022/12/20 00:21:27;;;;;;;42.08;22.10;;;3.60;99.90;;;;;;5052170;28;20380;-89
2022/12/20 00:23:53;;;;;;;45.83;21.33;;;3.60;99.90;;;;;;5035537;28;20041;-89
2022/12/20 00:26:23;;;;;;;46.72;21.92;;;3.60;99.90;;;;;;5068203;28;20039;-89
2022/12/20 00:28:49;;;;;;;42.45;20.70;;;3.50;99.90;;;;;;5034781;28;20037;-90
2022/12/20 00:31:17;;;;;;;39.65;21.98;;;3.50;99.90;;;;;;5048820;28;20393;-89
2022/12/20 00:33:50;;;;;;;36.10;20.58;;;3.40;99.90;;;;;;5049937;28;20029;-89
2022/12/20 00:36:16;;;;;;;41.13;21.45;;;3.40;99.90;;;;;;5051818;28;20025;-89
2022/12/20 00:38:50;;;;;;;37.78;21.70;;;3.50;99.90;;;;;;5051446;28;20025;-89
2022/12/20 00:41:19;;;;;;;44.58;21.80;;;3.50;99.90;;;;;;5051970;28;20033;-89
2022/12/20 00:43:45;;;;;;;39.17;20.50;;;3.50;99.90;;;;;;5051921;28;20029;-89
2022/12/20 00:46:13;;;;;;;35.63;20.65;;;3.50;99.90;;;;;;5051377;28;20032;-89
2022/12/20 00:48:39;;;;;;;35.88;18.90;;;3.40;99.90;;;;;;5051896;28;20048;-89
2022/12/20 00:51:08;;;;;;;42.13;20.20;;;3.50;99.90;;;;;;5052121;28;20029;-89
2022/12/20 00:53:35;;;;;;;50.08;21.85;;;3.50;99.90;;;;;;5051829;28;20132;-89
2022/12/20 00:56:01;;;;;;;43.88;21.35;;;3.50;99.90;;;;;;5035362;28;20043;-89
2022/12/20 00:58:27;;;;;;;38.53;20.88;;;3.50;99.90;;;;;;5068219;28;20499;-89
2022/12/20 01:00:53;;;;;;;45.50;21.30;;;3.40;99.90;;;;;;5052372;28;20427;-89
2022/12/20 01:03:19;;;;;;;45.92;21.58;;;3.40;99.90;;;;;;5038852;28;20060;-89
2022/12/20 01:05:52;;;;;;;37.78;20.17;;;3.40;99.90;;;;;;5051563;28;20021;-89
2022/12/20 01:08:18;;;;;;;42.55;20.45;;;3.50;99.90;;;;;;5068283;28;20633;-89
2022/12/20 01:10:44;;;;;;;39.83;20.73;;;3.50;99.90;;;;;;5035155;28;20033;-89
2022/12/20 01:13:10;;;;;;;38.45;19.25;;;3.50;99.90;;;;;;5058199;28;20032;-89
2022/12/20 01:15:36;;;;;;;40.92;20.30;;;3.50;99.90;;;;;;5043453;28;20030;-90
2022/12/20 01:18:02;;;;;;;38.50;21.17;;;3.50;99.90;;;;;;5052861;28;20105;-89
2022/12/20 01:20:27;;;;;;;40.90;20.58;;;3.50;99.90;;;;;;5049364;28;20115;-89
2022/12/20 01:22:53;;;;;;;38.03;20.75;;;3.40;99.90;;;;;;5038481;28;20116;-89
2022/12/20 01:25:19;;;;;;;34.20;19.23;;;3.30;99.90;;;;;;5038575;28;20029;-89
2022/12/20 01:27:45;;;;;;;40.10;20.27;;;3.30;99.90;;;;;;5061336;28;20033;-89
2022/12/20 01:30:12;;;;;;;36.05;19.73;;;3.30;99.90;;;;;;5054255;28;20082;-89
2022/12/20 01:32:38;;;;;;;38.75;19.55;;;3.30;99.90;;;;;;5054111;28;20051;-89
2022/12/20 01:35:04;;;;;;;36.42;19.60;;;3.30;99.90;;;;;;5054449;28;20025;-88
2022/12/20 01:37:31;;;;;;;37.55;19.63;;;3.30;99.90;;;;;;5037677;28;20067;-89
2022/12/20 01:39:56;;;;;;;36.72;19.52;;;3.20;99.90;;;;;;5054647;28;20120;-89
2022/12/20 01:42:22;;;;;;;38.45;19.80;;;3.30;99.90;;;;;;5054708;28;20057;-89
2022/12/20 01:44:54;;;;;;;37.92;20.77;;;3.30;99.90;;;;;;5037585;28;20028;-89
2022/12/20 01:47:20;;;;;;;39.28;20.50;;;3.40;99.90;;;;;;5054880;28;20032;-89
2022/12/20 01:49:49;;;;;;;41.45;21.27;;;3.50;99.90;;;;;;5055221;28;20033;-89
2022/12/20 01:52:22;;;;;;;39.95;20.85;;;3.50;99.90;;;;;;5053025;28;20032;-89
2022/12/20 01:54:57;;;;;;;42.53;21.80;;;3.50;99.90;;;;;;5035592;28;20029;-89
2022/12/20 01:57:50;;;;;;;39.30;20.23;;;3.50;99.90;;;;;;5054532;28;20037;-89
2022/12/20 02:00:16;;;;;;;41.85;21.73;;;3.60;99.90;;;;;;5054610;28;20503;-89
2022/12/20 02:02:46;;;;;;;36.67;21.30;;;3.60;99.90;;;;;;5037836;28;20033;-89
2022/12/20 02:05:13;;;;;;;36.97;20.25;;;3.60;99.90;;;;;;5037315;28;20054;-89
2022/12/20 02:07:41;;;;;;;40.05;19.75;;;3.60;99.90;;;;;;5037809;28;20125;-89
2022/12/20 02:10:09;;;;;;;36.58;20.52;;;3.70;99.90;;;;;;5059743;28;20029;-89
2022/12/20 02:12:41;;;;;;;38.63;19.75;;;3.70;99.90;;;;;;5038099;28;20786;-89
2022/12/20 02:15:13;;;;;;;35.13;19.83;;;3.70;99.90;;;;;;5058034;28;20043;-90
2022/12/20 02:17:50;;;;;;;33.00;18.33;;;3.70;99.90;;;;;;5038262;28;20472;-89
2022/12/20 02:20:47;;;;;;;37.85;17.63;;;3.80;99.90;;;;;;5039586;28;20024;-89
2022/12/20 02:23:25;;;;;;;35.00;18.27;;;4.00;99.90;;;;;;5054819;28;20025;-90
2022/12/20 02:26:13;;;;;;;36.05;19.20;;;4.10;99.90;;;;;;5038491;28;20033;-89
2022/12/20 02:28:57;;;;;;;36.58;19.15;;;4.20;99.90;;;;;;5066283;28;20504;-89
2022/12/20 02:31:29;;;;;;;34.58;19.25;;;4.20;99.90;;;;;;5054632;28;20805;-89
2022/12/20 02:33:57;;;;;;;40.58;20.20;;;4.20;99.90;;;;;;5054005;28;20502;-88
2022/12/20 02:36:24;;;;;;;40.35;21.20;;;4.10;99.90;;;;;;5053775;28;20484;-89
2022/12/20 02:38:51;;;;;;;59.40;26.42;;;4.00;99.90;;;;;;5037744;28;20101;-89
2022/12/20 02:41:31;;;;;;;45.63;23.25;;;4.00;99.90;;;;;;5053960;28;20025;-89
2022/12/20 02:46:49;;;;;;;56.43;25.10;;;4.00;99.90;;;;;;5052388;28;20030;-89
2022/12/20 02:49:21;;;;;;;53.45;23.85;;;4.10;99.90;;;;;;5053472;28;20275;-90
2022/12/20 02:51:51;;;;;;;53.63;23.80;;;4.00;99.90;;;;;;5053331;28;20025;-89
2022/12/20 02:54:17;;;;;;;43.13;23.00;;;3.90;99.90;;;;;;5055704;28;20032;-89
2022/12/20 02:56:53;;;;;;;45.85;24.27;;;3.80;99.90;;;;;;5037444;28;20035;-89
2022/12/20 02:59:24;;;;;;;41.78;23.13;;;3.70;99.90;;;;;;5053464;28;20417;-89
2022/12/20 03:01:52;;;;;;;48.25;24.38;;;3.60;99.90;;;;;;5053511;28;20119;-89
2022/12/20 03:04:24;;;;;;;41.38;22.95;;;3.50;99.90;;;;;;5045383;28;20171;-89
2022/12/20 03:07:04;;;;;;;51.20;27.92;;;3.50;99.90;;;;;;5053181;28;20563;-89
2022/12/20 03:09:33;;;;;;;42.63;23.20;;;3.50;99.90;;;;;;5053381;28;20035;-89
2022/12/20 03:11:59;;;;;;;45.35;23.38;;;3.60;99.90;;;;;;5056057;28;20384;-89
2022/12/20 03:14:25;;;;;;;46.42;23.63;;;3.70;99.90;;;;;;5053410;28;20025;-89
2022/12/20 03:16:52;;;;;;;46.25;23.35;;;3.90;99.90;;;;;;5053447;28;20484;-89
2022/12/20 03:19:18;;;;;;;43.55;23.20;;;4.00;99.90;;;;;;5053087;28;20086;-89
2022/12/20 03:21:44;;;;;;;46.63;22.40;;;4.00;99.90;;;;;;5053209;28;20020;-89
2022/12/20 03:24:12;;;;;;;43.10;22.77;;;4.10;99.90;;;;;;5036763;28;20041;-89
2022/12/20 03:26:39;;;;;;;42.10;22.05;;;4.20;99.90;;;;;;5052951;28;20477;-88
2022/12/20 03:29:06;;;;;;;41.38;22.50;;;4.30;99.90;;;;;;5036128;28;20036;-89
2022/12/20 03:31:32;;;;;;;50.33;23.35;;;4.30;99.90;;;;;;5053210;28;20021;-89
2022/12/20 03:33:57;;;;;;;45.47;23.95;;;4.30;99.90;;;;;;5053310;28;20107;-89
2022/12/20 03:36:23;;;;;;;46.67;23.27;;;4.30;99.90;;;;;;5035759;28;20041;-89
2022/12/20 03:38:54;;;;;;;42.78;22.45;;;4.30;99.90;;;;;;5036509;28;20037;-88
2022/12/20 03:41:21;;;;;;;47.42;24.02;;;4.30;99.90;;;;;;5051417;28;20031;-88
2022/12/20 03:43:48;;;;;;;45.10;22.52;;;4.30;99.90;;;;;;5050175;28;20169;-89
2022/12/20 03:46:14;;;;;;;42.78;22.17;;;4.30;99.90;;;;;;5035236;28;20039;-88
2022/12/20 03:48:40;;;;;;;39.00;20.92;;;4.30;99.90;;;;;;5051295;28;20032;-89
2022/12/20 03:51:09;;;;;;;39.30;21.58;;;4.30;99.90;;;;;;5035391;28;20132;-89
2022/12/20 03:53:34;;;;;;;39.45;20.80;;;4.30;99.90;;;;;;5051989;28;20395;-88
2022/12/20 03:56:01;;;;;;;42.67;22.23;;;4.30;99.90;;;;;;5052013;28;20036;-89
2022/12/20 03:58:27;;;;;;;42.15;21.42;;;4.30;99.90;;;;;;5051691;28;20025;-88
2022/12/20 04:00:53;;;;;;;44.92;22.83;;;4.30;99.90;;;;;;5046213;28;20029;-88
2022/12/20 04:03:34;;;;;;;46.88;24.15;;;4.30;99.90;;;;;;5052398;28;20025;-89
2022/12/20 04:06:00;;;;;;;35.00;18.25;;;4.30;99.90;;;;;;5033115;28;20026;-89
2022/12/20 04:08:26;;;;;;;56.70;22.70;;;4.30;99.90;;;;;;5052038;28;20021;-88
2022/12/20 04:13:39;;;;;;;34.42;18.60;;;4.20;99.90;;;;;;5057234;28;20057;-89
2022/12/20 04:16:08;;;;;;;35.60;17.80;;;4.20;99.90;;;;;;5048444;28;20112;-89
2022/12/20 04:18:33;;;;;;;31.45;16.38;;;4.20;99.90;;;;;;5034909;28;20141;-88
2022/12/20 04:21:00;;;;;;;25.92;15.52;;;4.20;99.90;;;;;;5056835;28;20025;-89
2022/12/20 04:23:28;;;;;;;25.33;15.10;;;4.20;99.90;;;;;;5052075;28;20396;-89
2022/12/20 04:25:54;;;;;;;25.25;14.73;;;4.30;99.90;;;;;;5040801;28;20420;-89
2022/12/20 04:28:20;;;;;;;27.83;15.32;;;4.30;99.90;;;;;;5035346;28;20105;-88
2022/12/20 04:30:47;;;;;;;27.63;14.73;;;4.30;99.90;;;;;;5052158;28;20033;-88
2022/12/20 04:33:18;;;;;;;23.15;13.38;;;4.30;99.90;;;;;;5036387;28;20078;-88
2022/12/20 04:35:44;;;;;;;27.38;15.05;;;4.30;99.90;;;;;;5052171;28;20037;-88
2022/12/20 04:38:10;;;;;;;25.98;14.75;;;4.30;99.90;;;;;;5035196;28;20029;-88
2022/12/20 04:40:36;;;;;;;33.97;15.90;;;4.40;99.90;;;;;;5068376;28;20025;-88
2022/12/20 04:43:04;;;;;;;29.15;14.30;;;4.40;99.90;;;;;;5051542;28;20024;-88
2022/12/20 04:45:30;;;;;;;28.45;14.52;;;4.40;99.90;;;;;;5051909;28;20476;-89
2022/12/20 04:47:56;;;;;;;26.23;13.73;;;4.40;99.90;;;;;;5034902;28;20047;-89
2022/12/20 04:50:29;;;;;;;22.23;12.98;;;4.50;99.90;;;;;;5042639;28;20028;-88
2022/12/20 04:55:39;;;;;;;25.42;12.85;;;4.50;99.90;;;;;;5059765;28;20056;-89
2022/12/20 04:58:06;;;;;;;23.25;11.80;;;4.50;99.90;;;;;;5038536;28;20499;-89
2022/12/20 05:00:32;;;;;;;29.02;14.43;;;4.40;99.90;;;;;;5055337;28;20424;-89
2022/12/20 05:03:06;;;;;;;24.13;13.73;;;4.40;99.90;;;;;;5037813;28;20021;-89
2022/12/20 05:05:32;;;;;;;28.02;14.30;;;4.30;99.90;;;;;;5055886;28;20075;-88
2022/12/20 05:07:58;;;;;;;30.33;15.93;;;4.30;99.90;;;;;;5037799;28;20029;-88
2022/12/20 05:10:24;;;;;;;25.50;14.15;;;4.30;99.90;;;;;;5041646;28;20039;-89
2022/12/20 05:12:52;;;;;;;22.80;13.73;;;4.30;99.90;;;;;;5038619;28;20021;-89
2022/12/20 05:15:29;;;;;;;28.05;14.15;;;4.20;99.90;;;;;;5053869;28;20037;-89
2022/12/20 05:17:59;;;;;;;29.45;15.15;;;4.20;99.90;;;;;;5047708;28;20052;-88
2022/12/20 05:20:28;;;;;;;27.55;15.73;;;4.40;99.90;;;;;;5053972;28;20503;-89
2022/12/20 05:28:32;;;;;;;22.40;12.35;;;4.30;99.90;;;;;;5053801;28;20060;-88
2022/12/20 05:30:58;;;;;;;28.35;13.35;;;4.40;99.90;;;;;;5059692;28;20042;-89
2022/12/20 05:33:25;;;;;;;24.50;12.48;;;4.40;99.90;;;;;;5054015;28;20431;-88
2022/12/20 05:35:50;;;;;;;18.80;10.73;;;4.30;99.90;;;;;;5061795;28;20028;-89
2022/12/20 05:38:16;;;;;;;22.40;12.10;;;4.50;99.90;;;;;;5037262;28;20086;-89
2022/12/20 05:40:42;;;;;;;17.92;11.32;;;4.50;99.90;;;;;;5054425;28;20081;-89
2022/12/20 05:43:10;;;;;;;25.15;13.35;;;4.60;99.90;;;;;;5038184;28;20013;-88
2022/12/20 05:45:47;;;;;;;28.35;12.85;;;4.60;99.90;;;;;;5054860;28;20017;-89
2022/12/20 05:48:16;;;;;;;31.00;14.00;;;4.60;99.90;;;;;;5054623;28;20029;-89
2022/12/20 05:50:43;;;;;;;31.75;14.75;;;4.60;99.90;;;;;;5054699;28;20054;-89
2022/12/20 05:53:29;;;;;;;31.05;15.05;;;4.40;99.90;;;;;;5032887;28;20040;-89
2022/12/20 05:56:00;;;;;;;27.52;15.48;;;4.30;99.90;;;;;;5056589;28;20021;-89
2022/12/20 05:58:30;;;;;;;27.65;15.73;;;4.10;99.90;;;;;;5037464;28;20405;-89
2022/12/20 06:01:04;;;;;;;31.25;15.95;;;4.10;99.90;;;;;;5037426;28;20025;-89
2022/12/20 06:03:36;;;;;;;31.00;16.40;;;4.00;99.90;;;;;;5052509;28;20028;-89
2022/12/20 06:06:05;;;;;;;23.15;14.43;;;4.00;99.90;;;;;;5037500;28;20064;-89
2022/12/20 06:08:31;;;;;;;30.60;15.82;;;3.90;99.90;;;;;;5053307;28;20029;-89
2022/12/20 06:11:00;;;;;;;26.80;15.13;;;3.90;99.90;;;;;;5053850;28;20112;-89
2022/12/20 06:13:28;;;;;;;22.95;14.73;;;3.90;99.90;;;;;;5058288;28;20017;-88
2022/12/20 06:15:54;;;;;;;30.40;16.00;;;3.90;99.90;;;;;;5037231;28;20148;-89
2022/12/20 06:18:20;;;;;;;31.33;15.57;;;3.90;99.90;;;;;;5057314;28;20025;-89
2022/12/20 06:20:50;;;;;;;30.27;15.75;;;3.80;99.90;;;;;;5053673;28;20025;-89
2022/12/20 06:23:17;;;;;;;29.60;16.33;;;3.90;99.90;;;;;;5053642;28;20029;-89
2022/12/20 06:25:52;;;;;;;28.30;15.85;;;3.90;99.90;;;;;;5035290;28;20025;-89
2022/12/20 06:28:22;;;;;;;36.17;16.65;;;3.80;99.90;;;;;;5061898;28;20033;-89
2022/12/20 06:30:54;;;;;;;32.80;17.35;;;3.80;99.90;;;;;;5047144;28;20025;-89
2022/12/20 06:33:33;;;;;;;24.73;14.85;;;3.80;99.90;;;;;;5043212;28;20491;-89
2022/12/20 06:35:59;;;;;;;31.98;16.15;;;3.80;99.90;;;;;;5049650;28;20025;-89
2022/12/20 06:38:25;;;;;;;30.85;16.27;;;3.80;99.90;;;;;;5052449;28;20027;-88
2022/12/20 06:40:51;;;;;;;26.80;16.48;;;3.80;99.90;;;;;;5045018;28;20028;-87
2022/12/20 06:43:17;;;;;;;32.40;16.05;;;3.80;99.90;;;;;;5049673;28;20025;-89
2022/12/20 06:45:42;;;;;;;35.40;17.40;;;3.80;99.90;;;;;;5065464;28;20499;-89
2022/12/20 06:48:10;;;;;;;33.38;17.42;;;3.80;99.90;;;;;;5041881;28;20033;-89
2022/12/20 06:50:38;;;;;;;30.08;17.30;;;3.90;99.90;;;;;;5046468;28;20025;-89
2022/12/20 06:53:05;;;;;;;29.35;17.33;;;3.90;99.90;;;;;;5048972;28;20025;-89
2022/12/20 06:55:30;;;;;;;33.90;18.27;;;3.90;99.90;;;;;;5062887;28;20112;-88
2022/12/20 06:57:56;;;;;;;30.35;17.80;;;3.90;99.90;;;;;;5047325;28;20901;-89
2022/12/20 07:00:24;;;;;;;33.35;17.95;;;3.80;99.90;;;;;;5051602;28;20021;-88
2022/12/20 07:02:49;;;;;;;37.92;18.85;;;3.80;99.90;;;;;;5048674;28;20031;-88
2022/12/20 07:05:15;;;;;;;36.10;18.30;;;3.80;99.90;;;;;;5038212;28;20022;-88
2022/12/20 07:07:41;;;;;;;31.13;15.50;;;4.00;99.90;;;;;;5048731;28;20070;-88
2022/12/20 07:10:07;;;;;;;28.75;16.13;;;4.20;99.90;;;;;;5048949;28;20028;-88
2022/12/20 07:12:33;;;;;;;30.92;16.90;;;4.30;99.90;;;;;;5050529;28;20041;-88
2022/12/20 07:14:59;;;;;;;31.58;16.17;;;4.50;99.90;;;;;;5047845;28;20731;-88
2022/12/20 07:17:24;;;;;;;28.88;15.38;;;4.50;99.90;;;;;;5045708;28;20840;-89
2022/12/20 07:19:50;;;;;;;31.38;16.73;;;4.50;99.90;;;;;;5044170;28;20083;-89
2022/12/20 07:22:16;;;;;;;33.83;17.58;;;4.50;99.90;;;;;;5030390;28;20033;-89
2022/12/20 07:24:42;;;;;;;27.85;16.70;;;4.50;99.90;;;;;;5039747;28;20116;-89
2022/12/20 07:27:10;;;;;;;29.65;15.48;;;4.40;99.90;;;;;;5048605;28;20025;-88
2022/12/20 07:29:39;;;;;;;37.85;17.90;;;4.40;99.90;;;;;;5063965;28;20031;-89
2022/12/20 07:32:05;;;;;;;34.50;17.63;;;4.30;99.90;;;;;;5048321;28;20115;-89
2022/12/20 07:34:31;;;;;;;32.28;17.17;;;4.30;99.90;;;;;;5048903;28;20036;-88
2022/12/20 07:36:57;;;;;;;33.65;16.77;;;4.30;99.90;;;;;;5032945;28;20489;-89
2022/12/20 07:39:22;;;;;;;43.78;20.75;;;4.30;99.90;;;;;;5047298;28;20550;-89
2022/12/20 07:41:48;;;;;;;52.00;23.95;;;4.20;99.90;;;;;;5049296;28;20036;-89
2022/12/20 07:44:15;;;;;;;33.20;18.90;;;4.30;99.90;;;;;;5023053;28;20376;-89
2022/12/20 07:46:41;;;;;;;40.40;21.20;;;4.30;99.90;;;;;;5032180;28;20017;-89
2022/12/20 07:49:08;;;;;;;35.33;19.27;;;4.30;99.90;;;;;;5043929;28;20353;-89
2022/12/20 07:51:37;;;;;;;39.00;20.13;;;4.40;99.90;;;;;;5032308;28;20110;-89
2022/12/20 07:54:10;;;;;;;30.65;17.10;;;4.50;99.90;;;;;;5035478;28;20029;-89
2022/12/20 07:56:40;;;;;;;33.00;17.73;;;4.60;99.90;;;;;;5031398;28;20087;-89
2022/12/20 07:59:06;;;;;;;27.95;16.38;;;4.70;99.90;;;;;;5049460;28;20029;-89
2022/12/20 08:01:32;;;;;;;32.90;15.52;;;4.70;99.90;;;;;;5048865;28;20096;-89
2022/12/20 08:04:04;;;;;;;30.20;16.08;;;4.70;99.90;;;;;;5046761;28;20053;-89
2022/12/20 08:06:31;;;;;;;27.17;15.13;;;4.70;99.90;;;;;;5050950;28;20106;-89
2022/12/20 08:09:03;;;;;;;28.85;15.65;;;4.70;99.90;;;;;;5047489;28;20035;-89
2022/12/20 08:11:30;;;;;;;28.63;15.48;;;4.70;99.90;;;;;;5047681;28;20041;-89
2022/12/20 08:13:56;;;;;;;27.98;15.65;;;4.60;99.90;;;;;;5032598;28;20022;-89
2022/12/20 08:16:36;;;;;;;29.65;15.05;;;4.70;99.90;;;;;;5047592;28;20481;-89
2022/12/20 08:19:23;;;;;;;27.85;15.13;;;4.70;99.90;;;;;;5026678;28;20045;-88
2022/12/20 08:21:49;;;;;;;24.67;13.80;;;4.70;99.90;;;;;;5041395;28;20032;-90
2022/12/20 08:24:15;;;;;;;20.20;12.93;;;4.80;99.90;;;;;;5048669;28;20032;-89
2022/12/20 08:26:41;;;;;;;24.48;13.27;;;4.70;99.90;;;;;;5059486;28;20032;-89
2022/12/20 08:29:07;;;;;;;20.88;11.90;;;4.80;99.90;;;;;;5054746;28;20665;-89
2022/12/20 08:31:41;;;;;;;23.63;13.23;;;4.90;99.90;;;;;;5048572;28;20418;-89
2022/12/20 08:34:07;;;;;;;24.08;13.60;;;5.00;99.90;;;;;;5054308;28;20029;-90
2022/12/20 08:36:33;;;;;;;19.17;12.27;;;5.10;99.90;;;;;;5056580;28;20059;-89
2022/12/20 08:39:02;;;;;;;24.80;12.52;;;5.20;99.90;;;;;;5054772;28;20067;-89
2022/12/20 08:41:28;;;;;;;20.52;12.40;;;5.30;99.90;;;;;;5051647;28;20028;-90
2022/12/20 08:43:53;;;;;;;24.55;13.40;;;5.40;99.90;;;;;;5048994;28;20033;-89
2022/12/20 08:46:19;;;;;;;23.73;14.73;;;5.40;99.90;;;;;;5054402;28;20041;-89
2022/12/20 08:48:45;;;;;;;30.65;13.07;;;5.40;99.90;;;;;;5053997;28;20046;-89
2022/12/20 08:51:11;;;;;;;27.38;13.55;;;5.50;99.90;;;;;;5053972;28;20481;-89
2022/12/20 08:53:37;;;;;;;21.98;12.68;;;5.60;99.90;;;;;;5026096;28;20547;-89
2022/12/20 08:56:06;;;;;;;18.00;11.50;;;5.60;99.90;;;;;;5066826;28;20785;-89
2022/12/20 08:58:32;;;;;;;27.42;14.50;;;5.70;99.90;;;;;;5054768;28;20037;-90
2022/12/20 09:00:59;;;;;;;38.03;19.92;;;5.80;99.90;;;;;;5057660;28;20480;-89
2022/12/20 09:03:26;;;;;;;41.35;18.50;;;5.90;99.90;;;;;;5039419;28;20116;-89
2022/12/20 09:05:52;;;;;;;50.08;20.83;;;6.00;99.90;;;;;;5050174;28;20045;-89
2022/12/20 09:08:17;;;;;;;40.25;20.70;;;6.10;99.90;;;;;;5043593;28;20063;-89
2022/12/20 09:10:43;;;;;;;29.23;15.52;;;6.20;99.90;;;;;;5057306;28;20044;-89
2022/12/20 09:13:10;;;;;;;33.88;16.42;;;6.30;99.90;;;;;;5054051;28;20029;-90
2022/12/20 09:15:36;;;;;;;40.10;20.00;;;6.40;99.90;;;;;;5057382;28;20403;-90
2022/12/20 09:18:02;;;;;;;38.08;16.80;;;6.60;99.90;;;;;;5053126;28;20032;-90
2022/12/20 09:20:28;;;;;;;36.25;17.27;;;6.70;99.90;;;;;;5047479;28;20025;-90
2022/12/20 09:22:55;;;;;;;26.25;13.85;;;6.80;99.90;;;;;;5051888;28;20032;-89
2022/12/20 09:25:20;;;;;;;31.83;16.60;;;6.90;99.90;;;;;;5058646;28;20033;-90
2022/12/20 09:27:46;;;;;;;31.67;16.58;;;7.00;99.90;;;;;;5074920;28;20472;-89
2022/12/20 09:30:12;;;;;;;27.38;14.13;;;7.00;99.90;;;;;;5041547;28;20040;-89
2022/12/20 09:32:38;;;;;;;24.45;13.77;;;7.10;99.90;;;;;;5076750;28;20032;-90
2022/12/20 09:35:04;;;;;;;25.50;14.80;;;7.10;99.90;;;;;;5058298;28;20504;-89
2022/12/20 09:37:31;;;;;;;24.42;11.75;;;7.10;99.90;;;;;;5064658;28;20037;-89
2022/12/20 09:39:57;;;;;;;25.70;11.48;;;7.00;99.90;;;;;;5057911;28;20031;-89
2022/12/20 09:42:26;;;;;;;19.30;10.35;;;6.90;99.90;;;;;;5074076;28;20491;-89
2022/12/20 09:45:07;;;;;;;18.27;9.85;;;6.80;99.90;;;;;;5048699;28;20032;-88
2022/12/20 09:47:34;;;;;;;15.18;8.85;;;6.80;99.90;;;;;;5059129;28;20029;-89
2022/12/20 09:50:03;;;;;;;17.83;9.48;;;6.90;99.90;;;;;;5055817;28;20381;-89
2022/12/20 09:52:53;;;;;;;16.35;9.85;;;7.00;99.90;;;;;;5054606;28;20025;-89
2022/12/20 09:55:34;;;;;;;16.75;9.73;;;7.00;99.90;;;;;;5054664;28;20040;-89
2022/12/20 09:58:30;;;;;;;20.23;10.48;;;7.00;99.90;;;;;;5054152;28;20385;-90
2022/12/20 10:00:57;;;;;;;24.13;12.32;;;7.00;99.90;;;;;;5054752;28;20021;-89
2022/12/20 10:03:28;;;;;;;27.27;12.95;;;7.00;99.90;;;;;;5054736;28;20675;-89
2022/12/20 10:05:58;;;;;;;23.17;12.45;;;6.90;99.90;;;;;;5053382;28;20040;-89
2022/12/20 10:08:32;;;;;;;23.63;13.48;;;6.80;99.90;;;;;;5052026;28;20078;-89
2022/12/20 10:11:23;;;;;;;19.17;10.80;;;6.70;99.90;;;;;;5037649;28;20033;-89
2022/12/20 10:13:57;;;;;;;17.92;9.98;;;6.60;99.90;;;;;;5056627;28;20477;-89
2022/12/20 10:16:44;;;;;;;19.17;10.45;;;6.60;99.90;;;;;;5053769;28;20041;-90
2022/12/20 10:19:56;;;;;;;16.92;9.55;;;6.60;99.90;;;;;;5054028;28;20090;-89
2022/12/20 10:22:57;;;;;;;14.50;7.97;;;6.70;99.90;;;;;;5053786;28;20033;-89
2022/12/20 10:25:29;;;;;;;13.93;7.35;;;6.80;99.90;;;;;;5037144;28;20064;-90
2022/12/20 10:27:56;;;;;;;13.00;7.55;;;7.00;99.90;;;;;;5037254;28;20056;-90
2022/12/20 10:30:24;;;;;;;12.55;7.75;;;7.10;99.90;;;;;;5058642;28;20476;-90
2022/12/20 10:32:52;;;;;;;14.85;7.60;;;7.20;99.90;;;;;;5054263;28;20084;-89
2022/12/20 10:35:39;;;;;;;14.13;7.63;;;7.10;99.90;;;;;;5053740;28;20037;-90
2022/12/20 10:38:11;;;;;;;16.30;7.47;;;7.20;99.90;;;;;;5057495;28;20067;-89
2022/12/20 10:40:47;;;;;;;12.75;7.22;;;7.30;99.90;;;;;;5035567;28;20460;-89
2022/12/20 10:43:21;;;;;;;14.90;7.35;;;7.40;99.90;;;;;;5039928;28;20033;-90
2022/12/20 10:46:03;;;;;;;12.38;7.20;;;7.50;99.90;;;;;;5050222;28;20025;-90
2022/12/20 10:48:29;;;;;;;;;;;7.50;99.90;;;;;;5047898;28;20033;-90
2022/12/20 10:51:09;;;;;;;13.88;7.03;;;7.50;99.90;;;;;;5045297;28;19909;-89
2022/12/20 10:53:48;;;;;;;12.80;7.33;;;7.40;99.90;;;;;;5046007;28;20041;-89
2022/12/20 10:56:31;;;;;;;12.45;7.38;;;7.40;99.90;;;;;;5044974;28;20053;-90
2022/12/20 10:59:21;;;;;;;10.10;6.65;;;7.60;99.90;;;;;;5036885;28;20069;-90
2022/12/20 11:01:48;;;;;;;13.52;6.93;;;7.70;99.90;;;;;;5028136;28;20082;-90
2022/12/20 11:04:31;;;;;;;12.00;6.95;;;7.70;99.90;;;;;;5046971;28;20116;-90
2022/12/20 11:06:58;;;;;;;13.02;6.93;;;7.80;99.90;;;;;;5038446;28;20029;-90
2022/12/20 11:09:25;;;;;;;9.80;6.53;;;7.80;99.90;;;;;;5049041;28;20060;-90
2022/12/20 11:12:11;;;;;;;10.77;7.38;;;7.70;99.90;;;;;;5044164;28;20035;-89
2022/12/20 11:14:38;;;;;;;20.50;10.82;;;7.60;99.90;;;;;;5062523;28;20029;-89
2022/12/20 11:17:13;;;;;;;16.30;10.00;;;7.50;99.90;;;;;;5036381;28;20123;-89
2022/12/20 11:20:03;;;;;;;18.67;9.75;;;7.40;99.90;;;;;;5029711;28;21054;-89
2022/12/20 11:22:57;;;;;;;16.23;10.32;;;7.40;99.90;;;;;;5036730;28;20503;-90
2022/12/20 11:25:35;;;;;;;13.73;8.20;;;7.30;99.90;;;;;;5062445;28;20036;-89
2022/12/20 11:28:18;;;;;;;20.05;9.48;;;7.20;99.90;;;;;;5037295;28;20037;-90
2022/12/20 11:31:03;;;;;;;16.48;9.50;;;7.20;99.90;;;;;;5033137;28;20160;-89
2022/12/20 11:33:54;;;;;;;25.95;11.65;;;7.10;99.90;;;;;;5045100;28;20033;-89
2022/12/20 11:36:40;;;;;;;20.73;11.98;;;7.00;99.90;;;;;;5062418;28;20033;-90
2022/12/20 11:39:28;;;;;;;19.83;10.68;;;6.90;99.90;;;;;;5045822;28;20384;-89
2022/12/20 11:41:56;;;;;;;19.50;11.40;;;6.80;99.90;;;;;;5047088;28;20024;-89
2022/12/20 11:44:43;;;;;;;16.55;10.65;;;6.80;99.90;;;;;;5053851;28;20023;-90
2022/12/20 11:47:23;;;;;;;19.17;10.43;;;6.90;99.90;;;;;;5052866;28;20431;-90
2022/12/20 11:50:17;;;;;;;21.33;11.07;;;7.00;99.90;;;;;;5036454;28;20034;-89
2022/12/20 11:52:45;;;;;;;18.25;11.18;;;7.10;99.90;;;;;;5044297;28;20040;-90
2022/12/20 11:55:32;;;;;;;16.83;9.48;;;7.20;99.90;;;;;;5052439;28;20025;-90
2022/12/20 11:58:21;;;;;;;13.00;8.32;;;7.30;99.90;;;;;;5045837;28;20040;-89
2022/12/20 12:00:58;;;;;;;17.85;9.30;;;7.40;99.90;;;;;;5034979;28;20386;-90
2022/12/20 12:03:38;;;;;;;24.90;11.38;;;7.50;99.90;;;;;;5053754;28;20029;-89
2022/12/20 12:06:10;;;;;;;16.58;9.88;;;7.60;99.90;;;;;;5046848;28;20060;-89
2022/12/20 12:08:49;;;;;;;;;;;7.50;99.90;;;;;;5054219;28;20033;-90
2022/12/20 12:11:23;;;;;;;16.92;9.55;;;7.40;99.90;;;;;;5069639;28;19912;-89
2022/12/20 12:13:50;;;;;;;16.25;8.73;;;7.30;99.90;;;;;;5052667;28;20036;-90
2022/12/20 12:16:26;;;;;;;15.02;8.45;;;7.20;99.90;;;;;;5052309;28;20048;-90
2022/12/20 12:18:52;;;;;;;14.32;8.77;;;7.20;99.90;;;;;;5040659;28;20112;-90
2022/12/20 12:21:25;;;;;;;15.35;7.60;;;7.20;99.90;;;;;;5048532;28;20063;-90
2022/12/20 12:24:07;;;;;;;12.73;7.63;;;7.20;99.90;;;;;;5044915;28;20412;-89
2022/12/20 12:26:41;;;;;;;13.32;7.82;;;7.30;99.90;;;;;;5069082;28;20025;-90
2022/12/20 12:29:18;;;;;;;14.85;7.80;;;7.40;99.90;;;;;;5052572;28;20054;-90
2022/12/20 12:31:50;;;;;;;12.75;7.38;;;7.50;99.90;;;;;;5035812;28;20065;-90
2022/12/20 12:34:25;;;;;;;15.20;7.75;;;7.50;99.90;;;;;;5052141;28;20025;-90
2022/12/20 12:37:18;;;;;;;16.65;7.75;;;7.70;99.90;;;;;;5047763;28;20444;-90
2022/12/20 12:40:06;;;;;;;18.88;9.35;;;7.80;99.90;;;;;;5041338;28;20091;-90
2022/12/20 12:43:00;;;;;;;14.23;9.05;;;7.90;99.90;;;;;;5068585;28;20041;-90
2022/12/20 12:45:31;;;;;;;12.68;8.50;;;7.90;99.90;;;;;;5048116;28;20029;-90
2022/12/20 12:48:33;;;;;;;14.65;8.07;;;8.00;99.90;;;;;;5063371;28;20115;-89
2022/12/20 12:51:01;;;;;;;13.48;8.57;;;7.90;99.90;;;;;;5035954;28;20079;-90
2022/12/20 12:53:50;;;;;;;14.57;8.20;;;8.00;99.90;;;;;;5029217;28;20037;-90
2022/12/20 12:56:41;;;;;;;14.20;7.97;;;8.10;99.90;;;;;;5060688;28;20500;-90
2022/12/20 12:59:08;;;;;;;11.82;7.40;;;8.20;99.90;;;;;;5023408;28;20092;-87
2022/12/20 13:01:59;;;;;;;11.27;6.97;;;8.30;99.90;;;;;;5033327;28;20033;-90
2022/12/20 13:04:45;;;;;;;13.77;8.27;;;8.30;99.90;;;;;;5064445;28;20492;-90
2022/12/20 13:07:32;;;;;;;17.33;7.93;;;8.20;99.90;;;;;;5064125;28;20436;-89
2022/12/20 13:09:59;;;;;;;12.80;7.75;;;8.20;99.90;;;;;;5022599;28;20029;-89
2022/12/20 13:12:37;;;;;;;14.98;7.70;;;8.20;99.90;;;;;;5034316;28;20030;-89